createdAt,value
2018-07-03T00:00:53.961Z,1.40
2018-07-03T00:03:23.433Z,1.73
2018-07-03T00:05:51.850Z,1.60
2018-07-03T00:08:20.502Z,1.40
2018-07-03T00:10:49.032Z,1.50
2018-07-03T00:13:17.449Z,2.30
2018-07-03T00:15:45.915Z,1.50
2018-07-03T00:18:14.478Z,1.80
2018-07-03T00:20:42.941Z,1.73
2018-07-03T00:23:11.372Z,1.60
2018-07-03T00:25:39.784Z,1.73
2018-07-03T00:28:08.229Z,1.80
2018-07-03T00:30:36.814Z,1.80
2018-07-03T00:33:05.483Z,1.90
2018-07-03T00:35:33.877Z,1.70
2018-07-03T00:38:02.493Z,1.93
2018-07-03T00:40:30.954Z,2.00
2018-07-03T00:42:59.419Z,1.70
2018-07-03T00:45:27.870Z,2.30
2018-07-03T00:47:56.562Z,1.90
2018-07-03T00:50:24.990Z,1.77
2018-07-03T00:52:53.566Z,2.10
2018-07-03T00:55:22.018Z,1.83
2018-07-03T00:57:50.465Z,2.20
2018-07-03T01:00:31.807Z,1.90
2018-07-03T01:03:00.783Z,2.10
2018-07-03T01:05:29.272Z,2.00
2018-07-03T01:07:58.152Z,2.00
2018-07-03T01:10:27.364Z,2.00
2018-07-03T01:12:56.451Z,2.07
2018-07-03T01:15:25.760Z,1.90
2018-07-03T01:17:54.161Z,1.90
2018-07-03T01:20:22.695Z,1.83
2018-07-03T01:22:51.689Z,1.77
2018-07-03T01:25:20.117Z,1.87
2018-07-03T01:27:48.584Z,1.90
2018-07-03T01:30:17.035Z,1.70
2018-07-03T01:32:45.456Z,1.70
2018-07-03T01:35:13.846Z,1.80
2018-07-03T01:37:42.254Z,1.63
2018-07-03T01:40:10.669Z,1.87
2018-07-03T01:42:39.101Z,1.80
2018-07-03T01:45:07.199Z,1.80
2018-07-03T01:47:35.604Z,1.50
2018-07-03T01:50:04.066Z,1.90
2018-07-03T01:52:32.473Z,1.80
2018-07-03T01:55:00.913Z,1.70
2018-07-03T01:57:29.390Z,1.80
2018-07-03T01:59:57.804Z,1.93
2018-07-03T02:02:26.309Z,1.70
2018-07-03T02:04:54.719Z,1.50
2018-07-03T02:07:23.161Z,2.00
2018-07-03T02:09:51.677Z,1.70
2018-07-03T02:12:19.884Z,1.70
2018-07-03T02:14:48.272Z,1.60
2018-07-03T02:17:16.708Z,1.57
2018-07-03T02:19:45.113Z,1.40
2018-07-03T02:22:13.561Z,1.60
2018-07-03T02:24:41.988Z,1.90
2018-07-03T02:27:10.407Z,1.60
2018-07-03T02:29:38.841Z,1.50
2018-07-03T02:32:07.289Z,1.60
2018-07-03T02:34:35.707Z,1.40
2018-07-03T02:37:04.129Z,1.50
2018-07-03T02:39:32.551Z,1.60
2018-07-03T02:42:00.959Z,1.40
2018-07-03T02:44:29.373Z,2.03
2018-07-03T02:46:57.816Z,1.60
2018-07-03T02:49:26.233Z,1.67
2018-07-03T02:51:54.637Z,1.70
2018-07-03T02:54:23.032Z,1.67
2018-07-03T02:56:51.437Z,1.87
2018-07-03T02:59:19.922Z,1.50
2018-07-03T03:01:48.365Z,1.43
2018-07-03T03:04:16.761Z,2.07
2018-07-03T03:06:45.177Z,2.00
2018-07-03T03:09:13.679Z,1.97
2018-07-03T03:11:42.265Z,1.70
2018-07-03T03:14:10.658Z,1.73
2018-07-03T03:16:39.196Z,1.80
2018-07-03T03:19:07.669Z,1.60
2018-07-03T03:21:36.056Z,1.33
2018-07-03T03:24:04.489Z,1.50
2018-07-03T03:26:32.620Z,1.50
2018-07-03T03:29:01.188Z,1.60
2018-07-03T03:31:29.605Z,2.07
2018-07-03T03:33:57.987Z,1.70
2018-07-03T03:36:26.444Z,1.70
2018-07-03T03:38:54.869Z,1.43
2018-07-03T03:41:23.323Z,1.87
2018-07-03T03:43:51.753Z,1.60
2018-07-03T03:46:20.196Z,1.50
2018-07-03T03:48:48.593Z,1.63
2018-07-03T03:51:17.021Z,1.50
2018-07-03T03:53:45.501Z,1.50
2018-07-03T03:56:13.932Z,1.47
2018-07-03T03:58:42.333Z,1.80
2018-07-03T04:01:10.718Z,1.60
2018-07-03T04:03:39.132Z,1.60
2018-07-03T04:06:07.557Z,1.67
2018-07-03T04:08:35.969Z,1.70
2018-07-03T04:11:04.596Z,1.53
2018-07-03T04:13:32.962Z,1.93
2018-07-03T04:16:01.388Z,1.83
2018-07-03T04:18:33.793Z,2.23
2018-07-03T04:21:04.037Z,2.07
2018-07-03T04:23:33.231Z,1.77
2018-07-03T04:26:01.710Z,1.90
2018-07-03T04:28:30.577Z,2.10
2018-07-03T04:30:58.981Z,2.00
2018-07-03T04:33:27.435Z,2.03
2018-07-03T04:35:56.473Z,2.00
2018-07-03T04:38:24.901Z,2.20
2018-07-03T04:40:53.301Z,2.13
2018-07-03T04:43:21.698Z,2.03
2018-07-03T04:45:50.125Z,1.67
2018-07-03T04:48:18.513Z,1.90
2018-07-03T04:50:47.068Z,2.23
2018-07-03T04:53:15.491Z,1.93
2018-07-03T04:55:44.016Z,2.20
2018-07-03T04:58:12.404Z,1.80
2018-07-03T05:00:40.813Z,1.90
2018-07-03T05:03:09.173Z,1.93
2018-07-03T05:05:37.675Z,2.23
2018-07-03T05:08:06.169Z,2.20
2018-07-03T05:10:34.896Z,2.20
2018-07-03T05:13:03.448Z,2.00
2018-07-03T05:15:31.900Z,2.00
2018-07-03T05:18:00.339Z,1.73
2018-07-03T05:20:28.778Z,2.20
2018-07-03T05:22:57.224Z,2.10
2018-07-03T05:25:25.603Z,2.40
2018-07-03T05:27:53.751Z,2.00
2018-07-03T05:30:22.184Z,2.00
2018-07-03T05:32:50.579Z,1.60
2018-07-03T05:35:18.968Z,1.82
2018-07-03T05:37:47.372Z,1.82
2018-07-03T05:40:15.940Z,1.95
2018-07-03T05:42:44.388Z,1.60
2018-07-03T05:45:12.860Z,1.57
2018-07-03T05:47:41.248Z,1.22
2018-07-03T05:50:09.665Z,1.60
2018-07-03T05:52:38.112Z,1.60
2018-07-03T05:55:06.907Z,1.70
2018-07-03T05:57:35.312Z,1.60
2018-07-03T06:00:03.896Z,1.30
2018-07-03T06:02:32.320Z,1.60
2018-07-03T06:05:00.733Z,1.62
2018-07-03T06:07:29.419Z,1.40
2018-07-03T06:09:58.356Z,1.40
2018-07-03T06:12:26.780Z,1.50
2018-07-03T06:14:55.302Z,1.35
2018-07-03T06:17:23.677Z,1.90
2018-07-03T06:19:52.080Z,1.40
2018-07-03T06:22:20.461Z,1.57
2018-07-03T06:24:49.100Z,1.25
2018-07-03T06:27:17.515Z,1.50
2018-07-03T06:29:45.963Z,1.60
2018-07-03T06:32:14.455Z,1.42
2018-07-03T06:34:42.839Z,1.50
2018-07-03T06:37:11.237Z,1.30
2018-07-03T06:39:39.649Z,1.57
2018-07-03T06:42:08.085Z,1.20
2018-07-03T06:44:36.456Z,1.50
2018-07-03T06:47:04.925Z,1.50
2018-07-03T06:49:33.376Z,1.47
2018-07-03T06:52:01.826Z,1.40
2018-07-03T06:54:30.238Z,1.40
2018-07-03T06:56:58.662Z,1.52
2018-07-03T06:59:27.078Z,1.60
2018-07-03T07:01:55.461Z,1.17
2018-07-03T07:04:23.885Z,1.60
2018-07-03T07:06:52.592Z,1.50
2018-07-03T07:09:21.085Z,1.42
2018-07-03T07:11:49.566Z,1.40
2018-07-03T07:14:17.933Z,1.60
2018-07-03T07:16:46.373Z,1.27
2018-07-03T07:19:14.737Z,1.65
2018-07-03T07:21:43.189Z,1.70
2018-07-03T07:24:11.640Z,1.45
2018-07-03T07:26:40.020Z,1.60
2018-07-03T07:29:08.456Z,1.40
2018-07-03T07:31:36.873Z,1.85
2018-07-03T07:34:05.320Z,1.30
2018-07-03T07:36:33.804Z,1.67
2018-07-03T07:39:02.465Z,1.65
2018-07-03T07:41:30.921Z,1.57
2018-07-03T07:43:59.427Z,1.27
2018-07-03T07:48:56.224Z,1.40
2018-07-03T07:51:24.648Z,1.47
2018-07-03T07:53:53.065Z,1.37
2018-07-03T07:56:21.549Z,1.50
2018-07-03T07:58:49.928Z,1.27
2018-07-03T08:01:18.013Z,1.50
2018-07-03T08:03:46.126Z,1.30
2018-07-03T08:06:14.529Z,1.40
2018-07-03T08:08:42.948Z,1.60
2018-07-03T08:11:11.503Z,1.40
2018-07-03T08:13:39.912Z,1.40
2018-07-03T08:16:08.299Z,1.30
2018-07-03T08:18:36.760Z,1.20
2018-07-03T08:21:05.197Z,1.47
2018-07-03T08:23:33.604Z,1.30
2018-07-03T08:26:03.276Z,1.50
2018-07-03T08:28:31.777Z,1.20
2018-07-03T08:31:00.288Z,1.27
2018-07-03T08:33:28.392Z,1.20
2018-07-03T08:35:56.800Z,1.60
2018-07-03T08:38:25.230Z,1.50
2018-07-03T08:40:53.643Z,1.40
2018-07-03T08:43:22.117Z,1.27
2018-07-03T08:45:50.533Z,1.10
2018-07-03T08:48:18.974Z,1.67
2018-07-03T08:50:48.228Z,1.40
2018-07-03T08:53:16.732Z,1.30
2018-07-03T08:55:45.181Z,1.22
2018-07-03T08:58:13.569Z,1.40
2018-07-03T09:00:42.039Z,1.60
2018-07-03T09:03:10.484Z,1.40
2018-07-03T09:05:38.927Z,1.35
2018-07-03T09:08:07.319Z,1.40
2018-07-03T09:10:35.724Z,1.40
2018-07-03T09:13:04.292Z,1.30
2018-07-03T09:15:32.716Z,1.27
2018-07-03T09:18:01.657Z,1.45
2018-07-03T09:20:30.047Z,1.40
2018-07-03T09:22:58.461Z,1.30
2018-07-03T09:25:26.879Z,1.32
2018-07-03T09:27:55.264Z,1.40
2018-07-03T09:30:23.737Z,1.20
2018-07-03T09:32:52.188Z,1.27
2018-07-03T09:35:20.615Z,1.87
2018-07-03T09:37:49.122Z,1.50
2018-07-03T09:40:17.578Z,1.65
2018-07-03T09:42:45.992Z,1.30
2018-07-03T09:45:14.451Z,1.20
2018-07-03T09:47:42.861Z,1.40
2018-07-03T09:50:11.309Z,1.35
2018-07-03T09:52:39.996Z,1.30
2018-07-03T09:55:08.422Z,1.15
2018-07-03T09:57:36.864Z,1.10
2018-07-03T10:00:06.524Z,1.20
2018-07-03T10:02:35.062Z,1.30
2018-07-03T10:05:03.565Z,1.20
2018-07-03T10:07:31.968Z,1.07
2018-07-03T10:10:00.394Z,1.30
2018-07-03T10:12:30.708Z,1.27
2018-07-03T10:14:59.135Z,1.20
2018-07-03T10:17:27.712Z,1.40
2018-07-03T10:19:56.137Z,1.40
2018-07-03T10:22:24.637Z,1.15
2018-07-03T10:24:53.044Z,1.30
2018-07-03T10:27:21.423Z,1.12
2018-07-03T10:29:49.845Z,1.02
2018-07-03T10:32:18.284Z,1.10
2018-07-03T10:34:46.721Z,1.20
2018-07-03T10:37:15.153Z,1.40
2018-07-03T10:39:43.617Z,1.20
2018-07-03T10:42:12.155Z,1.35
2018-07-03T10:44:40.631Z,1.30
2018-07-03T10:47:09.125Z,1.12
2018-07-03T10:49:37.648Z,1.22
2018-07-03T10:52:06.182Z,1.30
2018-07-03T10:54:34.576Z,1.25
2018-07-03T10:57:03.015Z,1.27
2018-07-03T10:59:31.486Z,1.30
2018-07-03T11:01:59.960Z,1.27
2018-07-03T11:04:28.360Z,1.30
2018-07-03T11:06:56.824Z,1.30
2018-07-03T11:09:25.430Z,1.20
2018-07-03T11:11:54.102Z,1.30
2018-07-03T11:14:22.492Z,1.20
2018-07-03T11:16:50.980Z,1.20
2018-07-03T11:19:19.546Z,1.10
2018-07-03T11:21:47.974Z,1.20
2018-07-03T11:24:16.456Z,1.25
2018-07-03T11:26:44.871Z,1.37
2018-07-03T11:29:13.305Z,2.10
2018-07-03T11:31:41.745Z,1.32
2018-07-03T11:34:10.219Z,1.12
2018-07-03T11:36:38.632Z,1.30
2018-07-03T11:39:08.136Z,1.47
2018-07-03T11:41:36.827Z,1.30
2018-07-03T11:44:05.418Z,1.30
2018-07-03T11:46:33.881Z,1.20
2018-07-03T11:49:02.277Z,1.07
2018-07-03T11:51:30.716Z,1.25
2018-07-03T11:53:59.184Z,1.30
2018-07-03T11:56:27.656Z,1.30
2018-07-03T11:58:56.104Z,1.42
2018-07-03T12:01:24.570Z,1.22
2018-07-03T12:03:52.965Z,1.27
2018-07-03T12:06:21.364Z,1.30
2018-07-03T12:08:49.943Z,1.22
2018-07-03T12:11:18.448Z,1.42
2018-07-03T12:13:46.882Z,1.37
2018-07-03T12:16:15.269Z,1.12
2018-07-03T12:18:48.944Z,1.20
2018-07-03T12:21:17.410Z,1.40
2018-07-03T12:23:45.833Z,1.57
2018-07-03T12:26:14.285Z,1.27
2018-07-03T12:28:42.672Z,1.23
2018-07-03T12:31:11.176Z,1.40
2018-07-03T12:33:39.627Z,1.50
2018-07-03T12:36:09.368Z,1.40
2018-07-03T12:38:38.031Z,1.42
2018-07-03T12:41:06.662Z,1.40
2018-07-03T12:43:35.234Z,1.62
2018-07-03T12:46:03.708Z,1.50
2018-07-03T12:48:33.072Z,1.30
2018-07-03T12:51:01.649Z,1.55
2018-07-03T12:53:30.073Z,1.50
2018-07-03T12:55:58.639Z,1.70
2018-07-03T12:58:27.416Z,1.40
2018-07-03T13:00:55.904Z,1.42
2018-07-03T13:03:24.386Z,1.30
2018-07-03T13:05:52.896Z,1.42
2018-07-03T13:08:21.304Z,1.50
2018-07-03T13:10:49.808Z,1.50
2018-07-03T13:13:18.642Z,1.42
2018-07-03T13:15:47.062Z,1.50
2018-07-03T13:18:22.697Z,1.40
2018-07-03T13:20:52.592Z,1.20
2018-07-03T13:23:22.280Z,1.30
2018-07-03T13:25:51.065Z,1.10
2018-07-03T13:28:19.766Z,1.30
2018-07-03T13:30:48.548Z,1.40
2018-07-03T13:33:17.195Z,1.30
2018-07-03T13:35:45.658Z,1.67
2018-07-03T13:38:14.132Z,1.50
2018-07-03T13:40:42.684Z,1.40
2018-07-03T13:43:11.120Z,1.32
2018-07-03T13:45:39.557Z,1.22
2018-07-03T13:48:08.038Z,1.40
2018-07-03T13:50:36.464Z,1.50
2018-07-03T13:53:04.880Z,1.12
2018-07-03T13:55:33.318Z,1.42
2018-07-03T13:58:01.734Z,1.35
2018-07-03T14:00:30.174Z,1.45
2018-07-03T14:02:58.788Z,1.40
2018-07-03T14:05:27.199Z,1.70
2018-07-03T14:07:55.958Z,1.80
2018-07-03T14:10:24.413Z,1.87
2018-07-03T14:12:53.255Z,1.65
2018-07-03T14:15:21.756Z,1.40
2018-07-03T14:17:50.180Z,1.60
2018-07-03T14:20:18.609Z,1.67
2018-07-03T14:22:47.166Z,1.65
2018-07-03T14:25:15.584Z,1.60
2018-07-03T14:27:43.977Z,1.40
2018-07-03T14:30:12.437Z,1.82
2018-07-03T14:32:40.920Z,1.50
2018-07-03T14:35:09.336Z,1.47
2018-07-03T14:37:37.762Z,2.02
2018-07-03T14:40:06.293Z,1.37
2018-07-03T14:42:34.661Z,1.30
2018-07-03T14:45:03.161Z,1.20
2018-07-03T14:47:31.545Z,1.50
2018-07-03T14:49:59.988Z,1.37
2018-07-03T14:52:28.269Z,1.32
2018-07-03T14:54:56.787Z,1.40
2018-07-03T14:57:25.274Z,1.55
2018-07-03T14:59:53.649Z,1.37
2018-07-03T15:02:22.218Z,1.70
2018-07-03T15:04:50.645Z,2.00
2018-07-03T15:07:19.096Z,1.80
2018-07-03T15:09:47.597Z,1.40
2018-07-03T15:12:16.038Z,1.30
2018-07-03T15:14:44.496Z,1.40
2018-07-03T15:17:12.873Z,1.35
2018-07-03T15:19:46.640Z,1.40
2018-07-03T15:22:16.070Z,1.50
2018-07-03T15:24:44.516Z,1.45
2018-07-03T15:27:12.983Z,1.50
2018-07-03T15:29:41.405Z,1.40
2018-07-03T15:32:09.841Z,1.40
2018-07-03T15:34:38.350Z,1.80
2018-07-03T15:37:06.956Z,1.50
2018-07-03T15:39:35.454Z,1.50
2018-07-03T15:42:04.133Z,1.30
2018-07-03T15:45:13.128Z,1.90
2018-07-03T15:47:41.580Z,2.77
2018-07-03T15:50:11.101Z,2.42
2018-07-03T15:52:39.821Z,1.90
2018-07-03T15:55:09.750Z,1.92
2018-07-03T15:57:38.160Z,1.42
2018-07-03T16:00:09.569Z,1.70
2018-07-03T16:02:38.005Z,1.77
2018-07-03T16:05:19.049Z,2.30
2018-07-03T16:08:34.088Z,1.87
2018-07-03T16:11:02.535Z,1.50
2018-07-03T16:13:30.944Z,1.82
2018-07-03T16:15:59.420Z,2.30
2018-07-03T16:18:28.492Z,1.42
2018-07-03T16:20:56.958Z,1.42
2018-07-03T16:23:25.519Z,1.55
2018-07-03T16:25:54.449Z,1.80
2018-07-03T16:28:22.944Z,1.70
2018-07-03T16:30:51.426Z,1.70
2018-07-03T16:33:20.028Z,1.70
2018-07-03T16:35:48.356Z,1.75
2018-07-03T16:38:16.769Z,1.75
2018-07-03T16:40:45.244Z,1.55
2018-07-03T16:43:13.768Z,2.37
2018-07-03T16:45:42.437Z,2.15
2018-07-03T16:48:10.951Z,2.30
2018-07-03T16:50:39.390Z,1.60
2018-07-03T16:53:08.249Z,1.80
2018-07-03T16:55:36.696Z,2.52
2018-07-03T16:58:05.145Z,2.77
2018-07-03T17:00:33.580Z,3.10
2018-07-03T17:03:02.030Z,2.45
2018-07-03T17:05:30.456Z,2.10
2018-07-03T17:07:58.913Z,11.63
2018-07-03T17:10:27.312Z,1.65
2018-07-03T17:12:55.827Z,2.80
2018-07-03T17:15:24.300Z,3.95
2018-07-03T17:17:52.834Z,3.42
2018-07-03T17:20:21.278Z,2.90
2018-07-03T17:22:49.776Z,2.33
2018-07-03T17:25:18.264Z,2.58
2018-07-03T17:27:46.743Z,2.15
2018-07-03T17:30:15.216Z,2.05
2018-07-03T17:32:43.890Z,1.70
2018-07-03T17:35:12.337Z,2.00
2018-07-03T17:37:40.785Z,2.05
2018-07-03T17:40:20.584Z,2.12
2018-07-03T17:43:18.711Z,2.00
2018-07-03T17:45:58.443Z,2.10
2018-07-03T17:48:26.918Z,2.45
2018-07-03T17:50:55.556Z,1.87
2018-07-03T17:53:24.070Z,1.80
2018-07-03T17:55:52.495Z,1.80
2018-07-03T17:58:20.936Z,1.57
2018-07-03T18:00:49.417Z,1.90
2018-07-03T18:03:17.881Z,1.77
2018-07-03T18:05:46.575Z,1.87
2018-07-03T18:08:15.176Z,1.90
2018-07-03T18:10:43.721Z,1.98
2018-07-03T18:13:18.669Z,2.42
2018-07-03T18:15:47.113Z,1.85
2018-07-03T18:18:15.541Z,1.70
2018-07-03T18:20:43.973Z,1.80
2018-07-03T18:23:12.452Z,1.90
2018-07-03T18:25:40.968Z,1.85
2018-07-03T18:28:09.541Z,1.90
2018-07-03T18:30:37.986Z,1.82
2018-07-03T18:33:06.460Z,2.27
2018-07-03T18:35:35.042Z,2.55
2018-07-03T18:38:03.723Z,3.40
2018-07-03T18:40:31.949Z,2.12
2018-07-03T18:43:00.701Z,1.57
2018-07-03T18:45:28.998Z,2.05
2018-07-03T18:47:57.468Z,2.08
2018-07-03T18:50:25.939Z,1.98
2018-07-03T18:52:54.376Z,1.62
2018-07-03T18:55:22.926Z,1.90
2018-07-03T18:57:51.353Z,1.90
2018-07-03T19:00:19.901Z,1.80
2018-07-03T19:02:48.551Z,1.70
2018-07-03T19:05:17.243Z,2.12
2018-07-03T19:07:45.698Z,1.70
2018-07-03T19:10:14.265Z,2.10
2018-07-03T19:12:42.697Z,2.02
2018-07-03T19:15:11.128Z,1.85
2018-07-03T19:17:39.609Z,2.10
2018-07-03T19:20:08.081Z,2.12
2018-07-03T19:22:36.668Z,1.92
2018-07-03T19:25:05.301Z,2.42
2018-07-03T19:27:33.814Z,1.95
2018-07-03T19:30:02.346Z,2.35
2018-07-03T19:32:30.985Z,3.50
2018-07-03T19:34:59.540Z,2.65
2018-07-03T19:37:29.070Z,2.55
2018-07-03T19:39:57.733Z,3.00
2018-07-03T19:42:26.284Z,3.27
2018-07-03T19:44:54.680Z,2.87
2018-07-03T19:47:23.255Z,3.00
2018-07-03T19:49:51.775Z,3.30
2018-07-03T19:52:20.246Z,2.90
2018-07-03T19:54:48.659Z,4.77
2018-07-03T19:57:17.133Z,16.23
2018-07-03T19:59:45.654Z,10.60
2018-07-03T20:02:14.213Z,24.10
2018-07-03T20:04:42.669Z,7.67
2018-07-03T20:07:11.124Z,7.00
2018-07-03T20:09:39.696Z,4.23
2018-07-03T20:12:08.194Z,4.67
2018-07-03T20:14:36.740Z,3.27
2018-07-03T20:17:05.337Z,4.07
2018-07-03T20:19:33.817Z,3.10
2018-07-03T20:22:04.151Z,2.83
2018-07-03T20:24:32.686Z,3.20
2018-07-03T20:27:01.154Z,3.30
2018-07-03T20:29:29.720Z,3.27
2018-07-03T20:31:58.212Z,3.37
2018-07-03T20:34:26.712Z,3.73
2018-07-03T20:36:55.376Z,3.53
2018-07-03T20:39:23.978Z,3.60
2018-07-03T20:41:52.409Z,3.43
2018-07-03T20:44:20.897Z,3.27
2018-07-03T20:46:49.387Z,3.27
2018-07-03T20:49:17.860Z,3.20
2018-07-03T20:51:46.341Z,3.70
2018-07-03T20:54:14.962Z,3.17
2018-07-03T20:56:43.398Z,4.20
2018-07-03T20:59:11.934Z,3.67
2018-07-03T21:01:40.363Z,4.30
2018-07-03T21:04:08.938Z,4.20
2018-07-03T21:06:37.308Z,4.43
2018-07-03T21:09:08.029Z,4.30
2018-07-03T21:11:36.505Z,5.40
2018-07-03T21:14:05.108Z,4.43
2018-07-03T21:16:33.696Z,4.40
2018-07-03T21:19:02.212Z,4.70
2018-07-03T21:21:30.864Z,4.30
2018-07-03T21:23:59.337Z,4.40
2018-07-03T21:26:27.829Z,4.60
2018-07-03T21:28:56.394Z,4.43
2018-07-03T21:31:24.800Z,4.47
2018-07-03T21:33:53.191Z,4.97
2018-07-03T21:36:21.585Z,3.27
2018-07-03T21:38:50.103Z,4.13
2018-07-03T21:41:18.485Z,4.43
2018-07-03T21:43:46.890Z,3.50
2018-07-03T21:46:15.302Z,3.73
2018-07-03T21:48:43.749Z,4.43
2018-07-03T21:51:12.157Z,4.30
2018-07-03T21:53:40.635Z,4.20
2018-07-03T21:56:09.040Z,4.17
2018-07-03T21:58:37.424Z,4.23
2018-07-03T22:01:06.051Z,4.03
2018-07-03T22:03:34.608Z,2.70
2018-07-03T22:06:03.147Z,3.17
2018-07-03T22:08:31.651Z,3.20
2018-07-03T22:11:00.168Z,3.50
2018-07-03T22:13:28.587Z,3.07
2018-07-03T22:15:56.980Z,2.87
2018-07-03T22:18:25.411Z,3.60
2018-07-03T22:20:53.804Z,3.30
2018-07-03T22:23:22.311Z,3.60
2018-07-03T22:25:50.719Z,3.37
2018-07-03T22:28:19.137Z,3.30
2018-07-03T22:30:47.578Z,3.10
2018-07-03T22:33:15.720Z,3.40
2018-07-03T22:35:44.110Z,3.20
2018-07-03T22:38:12.516Z,3.03
2018-07-03T22:40:40.881Z,2.70
2018-07-03T22:43:09.280Z,3.13
2018-07-03T22:45:37.788Z,2.60
2018-07-03T22:48:06.249Z,2.90
2018-07-03T22:50:35.712Z,3.17
2018-07-03T22:53:04.380Z,2.70
2018-07-03T22:55:32.811Z,2.60
2018-07-03T22:58:01.238Z,3.07
2018-07-03T23:00:30.121Z,2.37
2018-07-03T23:02:58.532Z,2.83
2018-07-03T23:05:26.972Z,2.90
2018-07-03T23:07:55.511Z,3.30
2018-07-03T23:10:23.944Z,3.10
2018-07-03T23:12:52.412Z,2.90
2018-07-03T23:15:20.864Z,3.23
2018-07-03T23:17:49.257Z,2.70
2018-07-03T23:20:17.800Z,3.17
2018-07-03T23:22:46.225Z,2.80
2018-07-03T23:25:14.619Z,2.53
2018-07-03T23:27:42.988Z,2.40
2018-07-03T23:30:11.373Z,2.63
2018-07-03T23:32:39.908Z,2.37
2018-07-03T23:35:08.330Z,2.40
2018-07-03T23:37:37.345Z,2.40
2018-07-03T23:40:06.395Z,2.20
2018-07-03T23:42:36.845Z,2.30
2018-07-03T23:45:10.323Z,2.60
2018-07-03T23:47:50.193Z,2.30
2018-07-03T23:50:29.825Z,2.10
2018-07-03T23:53:09.525Z,2.27
2018-07-03T23:55:49.261Z,2.17
2018-07-03T23:58:31.135Z,2.10
